sensor_id;sensor_type;location;lat;lon;timestamp;pressure;altitude;pressure_sealevel;temperature;humidity
34241;BME280;20503;50.200;19.508;2023-03-01T00:01:30;102867.03;;;-3.85;100.00
34241;BME280;20503;50.200;19.508;2023-03-01T00:06:37;102865.56;;;-4.14;100.00
34241;BME280;20503;50.200;19.508;2023-03-01T00:11:46;102860.22;;;-4.14;100.00
34241;BME280;20503;50.200;19.508;2023-03-01T00:16:54;102859.64;;;-4.42;100.00
34241;BME280;20503;50.200;19.508;2023-03-01T00:22:01;102860.48;;;-4.20;100.00
34241;BME280;20503;50.200;19.508;2023-03-01T00:27:09;102853.67;;;-4.27;100.00
34241;BME280;20503;50.200;19.508;2023-03-01T00:32:17;102820.74;;;-4.70;100.00
34241;BME280;20503;50.200;19.508;2023-03-01T00:37:25;102842.64;;;-4.61;100.00
34241;BME280;20503;50.200;19.508;2023-03-01T00:42:33;102837.28;;;-4.82;100.00
34241;BME280;20503;50.200;19.508;2023-03-01T00:47:41;102835.16;;;-4.74;100.00
34241;BME280;20503;50.200;19.508;2023-03-01T00:52:55;102832.94;;;-4.63;100.00
34241;BME280;20503;50.200;19.508;2023-03-01T00:57:57;102825.37;;;-4.74;100.00
34241;BME280;20503;50.200;19.508;2023-03-01T01:03:05;102820.98;;;-4.98;100.00
34241;BME280;20503;50.200;19.508;2023-03-01T01:08:12;102830.55;;;-4.92;100.00
34241;BME280;20503;50.200;19.508;2023-03-01T01:13:19;102819.62;;;-4.86;100.00
34241;BME280;20503;50.200;19.508;2023-03-01T01:18:27;102819.88;;;-4.71;100.00
34241;BME280;20503;50.200;19.508;2023-03-01T01:23:37;102807.57;;;-4.53;100.00
34241;BME280;20503;50.200;19.508;2023-03-01T01:28:43;102817.66;;;-4.60;100.00
34241;BME280;20503;50.200;19.508;2023-03-01T01:33:52;102808.73;;;-4.59;100.00
34241;BME280;20503;50.200;19.508;2023-03-01T01:38:59;102808.95;;;-4.65;100.00
34241;BME280;20503;50.200;19.508;2023-03-01T01:59:58;102774.98;;;-4.83;100.00
34241;BME280;20503;50.200;19.508;2023-03-01T02:05:03;102775.80;;;-4.81;100.00
34241;BME280;20503;50.200;19.508;2023-03-01T02:10:11;102761.90;;;-4.89;100.00
34241;BME280;20503;50.200;19.508;2023-03-01T02:15:14;102776.80;;;-4.83;100.00
34241;BME280;20503;50.200;19.508;2023-03-01T02:20:25;102764.61;;;-4.90;100.00
34241;BME280;20503;50.200;19.508;2023-03-01T02:30:47;102795.27;;;-4.79;100.00
34241;BME280;20503;50.200;19.508;2023-03-01T02:36:06;102781.52;;;-4.90;100.00
34241;BME280;20503;50.200;19.508;2023-03-01T02:41:10;102790.33;;;-4.88;100.00
34241;BME280;20503;50.200;19.508;2023-03-01T02:46:17;102787.04;;;-4.94;100.00
34241;BME280;20503;50.200;19.508;2023-03-01T02:51:30;102788.02;;;-4.97;100.00
34241;BME280;20503;50.200;19.508;2023-03-01T02:56:34;102782.38;;;-5.11;100.00
34241;BME280;20503;50.200;19.508;2023-03-01T03:01:35;102777.86;;;-5.09;100.00
34241;BME280;20503;50.200;19.508;2023-03-01T03:06:40;102786.03;;;-5.13;100.00
34241;BME280;20503;50.200;19.508;2023-03-01T03:11:42;102776.30;;;-5.14;100.00
34241;BME280;20503;50.200;19.508;2023-03-01T03:16:46;102771.80;;;-5.14;100.00
34241;BME280;20503;50.200;19.508;2023-03-01T03:21:48;102767.34;;;-5.13;100.00
34241;BME280;20503;50.200;19.508;2023-03-01T03:26:50;102758.59;;;-5.17;100.00
34241;BME280;20503;50.200;19.508;2023-03-01T03:31:51;102756.04;;;-5.20;100.00
34241;BME280;20503;50.200;19.508;2023-03-01T03:36:57;102759.52;;;-5.18;100.00
34241;BME280;20503;50.200;19.508;2023-03-01T03:42:04;102761.26;;;-5.17;100.00
34241;BME280;20503;50.200;19.508;2023-03-01T03:47:13;102766.67;;;-5.18;100.00
34241;BME280;20503;50.200;19.508;2023-03-01T03:52:21;102769.81;;;-5.30;100.00
34241;BME280;20503;50.200;19.508;2023-03-01T03:57:29;102770.91;;;-5.36;100.00
34241;BME280;20503;50.200;19.508;2023-03-01T04:02:37;102773.63;;;-5.37;100.00
34241;BME280;20503;50.200;19.508;2023-03-01T04:07:45;102760.24;;;-5.36;100.00
34241;BME280;20503;50.200;19.508;2023-03-01T04:12:52;102763.07;;;-5.40;100.00
34241;BME280;20503;50.200;19.508;2023-03-01T04:18:00;102774.84;;;-5.46;100.00
34241;BME280;20503;50.200;19.508;2023-03-01T04:23:11;102777.76;;;-5.52;100.00
34241;BME280;20503;50.200;19.508;2023-03-01T04:28:27;102767.91;;;-5.50;100.00
34241;BME280;20503;50.200;19.508;2023-03-01T04:33:29;102754.36;;;-5.44;100.00
34241;BME280;20503;50.200;19.508;2023-03-01T04:38:32;102764.09;;;-5.43;100.00
34241;BME280;20503;50.200;19.508;2023-03-01T04:43:40;102763.94;;;-5.62;100.00
34241;BME280;20503;50.200;19.508;2023-03-01T04:48:48;102755.26;;;-5.67;100.00
34241;BME280;20503;50.200;19.508;2023-03-01T04:53:56;102749.80;;;-5.64;100.00
34241;BME280;20503;50.200;19.508;2023-03-01T04:59:04;102737.20;;;-5.82;100.00
34241;BME280;20503;50.200;19.508;2023-03-01T05:04:12;102740.69;;;-5.80;100.00
34241;BME280;20503;50.200;19.508;2023-03-01T05:09:20;102743.80;;;-5.69;100.00
34241;BME280;20503;50.200;19.508;2023-03-01T05:14:28;102736.61;;;-5.67;100.00
34241;BME280;20503;50.200;19.508;2023-03-01T05:19:36;102728.77;;;-5.72;100.00
34241;BME280;20503;50.200;19.508;2023-03-01T05:24:44;102723.74;;;-5.56;100.00
34241;BME280;20503;50.200;19.508;2023-03-01T05:29:52;102736.80;;;-5.06;100.00
34241;BME280;20503;50.200;19.508;2023-03-01T05:35:00;102738.52;;;-5.48;100.00
34241;BME280;20503;50.200;19.508;2023-03-01T05:40:11;102744.92;;;-5.31;100.00
34241;BME280;20503;50.200;19.508;2023-03-01T05:45:19;102750.91;;;-5.03;100.00
34241;BME280;20503;50.200;19.508;2023-03-01T05:50:26;102752.10;;;-5.10;100.00
34241;BME280;20503;50.200;19.508;2023-03-01T05:55:33;102746.44;;;-5.24;100.00
34241;BME280;20503;50.200;19.508;2023-03-01T06:00:41;102745.24;;;-5.17;100.00
34241;BME280;20503;50.200;19.508;2023-03-01T06:05:48;102753.10;;;-4.91;100.00
34241;BME280;20503;50.200;19.508;2023-03-01T06:10:56;102758.92;;;-4.81;100.00
34241;BME280;20503;50.200;19.508;2023-03-01T06:16:07;102762.74;;;-4.67;100.00
34241;BME280;20503;50.200;19.508;2023-03-01T06:21:10;102755.77;;;-4.49;100.00
34241;BME280;20503;50.200;19.508;2023-03-01T06:26:19;102766.34;;;-4.26;100.00
34241;BME280;20503;50.200;19.508;2023-03-01T06:31:28;102756.20;;;-3.60;100.00
34241;BME280;20503;50.200;19.508;2023-03-01T06:36:36;102751.80;;;-3.24;100.00
34241;BME280;20503;50.200;19.508;2023-03-01T06:41:45;102751.56;;;-3.01;100.00
34241;BME280;20503;50.200;19.508;2023-03-01T06:46:52;102747.77;;;-2.26;100.00
34241;BME280;20503;50.200;19.508;2023-03-01T06:51:59;102745.55;;;-1.06;100.00
34241;BME280;20503;50.200;19.508;2023-03-01T06:57:07;102747.64;;;-0.05;100.00
34241;BME280;20503;50.200;19.508;2023-03-01T07:02:15;102745.12;;;1.17;100.00
34241;BME280;20503;50.200;19.508;2023-03-01T07:07:23;102748.65;;;1.58;100.00
34241;BME280;20503;50.200;19.508;2023-03-01T07:12:32;102744.95;;;1.85;100.00
34241;BME280;20503;50.200;19.508;2023-03-01T07:17:40;102727.82;;;2.36;100.00
34241;BME280;20503;50.200;19.508;2023-03-01T07:22:47;102729.23;;;3.03;100.00
34241;BME280;20503;50.200;19.508;2023-03-01T07:27:55;102726.89;;;3.68;100.00
34241;BME280;20503;50.200;19.508;2023-03-01T07:33:03;102719.10;;;4.55;79.49
34241;BME280;20503;50.200;19.508;2023-03-01T07:38:10;102721.68;;;5.53;76.12
34241;BME280;20503;50.200;19.508;2023-03-01T07:43:18;102728.71;;;5.03;74.92
34241;BME280;20503;50.200;19.508;2023-03-01T07:48:25;102732.01;;;5.17;71.95
34241;BME280;20503;50.200;19.508;2023-03-01T07:53:34;102739.04;;;5.31;71.72
34241;BME280;20503;50.200;19.508;2023-03-01T07:58:43;102736.05;;;5.45;67.31
34241;BME280;20503;50.200;19.508;2023-03-01T08:03:50;102738.26;;;5.40;65.50
34241;BME280;20503;50.200;19.508;2023-03-01T08:08:57;102739.04;;;6.45;65.07
34241;BME280;20503;50.200;19.508;2023-03-01T08:14:06;102725.48;;;7.24;59.54
34241;BME280;20503;50.200;19.508;2023-03-01T08:19:14;102722.38;;;7.47;58.15
34241;BME280;20503;50.200;19.508;2023-03-01T08:24:22;102720.53;;;6.99;58.49
34241;BME280;20503;50.200;19.508;2023-03-01T08:29:33;102729.02;;;7.06;56.64
34241;BME280;20503;50.200;19.508;2023-03-01T08:34:37;102718.10;;;6.66;55.33
34241;BME280;20503;50.200;19.508;2023-03-01T08:39:45;102719.10;;;7.44;53.58
34241;BME280;20503;50.200;19.508;2023-03-01T08:44:53;102707.01;;;7.28;55.40
34241;BME280;20503;50.200;19.508;2023-03-01T08:50:01;102704.54;;;8.57;54.65
34241;BME280;20503;50.200;19.508;2023-03-01T08:55:09;102703.99;;;7.31;55.22
34241;BME280;20503;50.200;19.508;2023-03-01T09:00:17;102711.17;;;7.32;55.25
34241;BME280;20503;50.200;19.508;2023-03-01T09:05:24;102710.07;;;6.65;57.81
34241;BME280;20503;50.200;19.508;2023-03-01T09:10:33;102709.44;;;7.31;55.56
34241;BME280;20503;50.200;19.508;2023-03-01T09:15:41;102699.80;;;6.48;54.76
34241;BME280;20503;50.200;19.508;2023-03-01T09:20:48;102704.14;;;6.50;58.16
34241;BME280;20503;50.200;19.508;2023-03-01T09:25:57;102701.17;;;7.98;57.07
34241;BME280;20503;50.200;19.508;2023-03-01T09:31:04;102701.89;;;7.81;51.97
34241;BME280;20503;50.200;19.508;2023-03-01T09:36:13;102699.94;;;7.16;52.57
34241;BME280;20503;50.200;19.508;2023-03-01T09:46:37;102673.89;;;9.00;48.94
34241;BME280;20503;50.200;19.508;2023-03-01T09:51:54;102682.59;;;8.40;48.78
34241;BME280;20503;50.200;19.508;2023-03-01T10:02:21;102690.93;;;9.11;47.32
34241;BME280;20503;50.200;19.508;2023-03-01T10:12:42;102676.80;;;7.78;53.86
34241;BME280;20503;50.200;19.508;2023-03-01T10:18:01;102672.20;;;7.59;53.11
34241;BME280;20503;50.200;19.508;2023-03-01T10:23:00;102675.22;;;7.47;51.83
34241;BME280;20503;50.200;19.508;2023-03-01T10:28:26;102670.85;;;9.03;48.25
34241;BME280;20503;50.200;19.508;2023-03-01T10:43:49;102659.73;;;8.60;49.81
34241;BME280;20503;50.200;19.508;2023-03-01T10:54:18;102658.27;;;8.65;47.18
34241;BME280;20503;50.200;19.508;2023-03-01T10:59:28;102653.70;;;7.44;48.17
34241;BME280;20503;50.200;19.508;2023-03-01T11:04:30;102645.16;;;8.23;50.09
34241;BME280;20503;50.200;19.508;2023-03-01T11:09:33;102632.99;;;7.98;49.75
34241;BME280;20503;50.200;19.508;2023-03-01T11:14:47;102634.53;;;8.29;48.99
34241;BME280;20503;50.200;19.508;2023-03-01T11:20:40;102628.30;;;7.72;48.19
34241;BME280;20503;50.200;19.508;2023-03-01T11:25:12;102623.53;;;8.58;48.33
34241;BME280;20503;50.200;19.508;2023-03-01T11:30:27;102610.03;;;8.01;47.69
34241;BME280;20503;50.200;19.508;2023-03-01T11:35:29;102614.27;;;7.29;49.96
34241;BME280;20503;50.200;19.508;2023-03-01T11:40:43;102627.44;;;7.81;49.01
34241;BME280;20503;50.200;19.508;2023-03-01T11:51:07;102599.24;;;8.28;48.91
34241;BME280;20503;50.200;19.508;2023-03-01T12:06:47;102599.04;;;7.83;49.57
34241;BME280;20503;50.200;19.508;2023-03-01T12:22:27;102569.66;;;7.58;52.46
34241;BME280;20503;50.200;19.508;2023-03-01T12:32:53;102571.52;;;7.01;48.66
34241;BME280;20503;50.200;19.508;2023-03-01T12:53:46;102559.79;;;7.20;42.61
34241;BME280;20503;50.200;19.508;2023-03-01T12:58:58;102527.04;;;7.67;45.72
34241;BME280;20503;50.200;19.508;2023-03-01T13:09:23;102531.98;;;7.16;42.97
34241;BME280;20503;50.200;19.508;2023-03-01T13:14:35;102537.43;;;7.07;41.97
34241;BME280;20503;50.200;19.508;2023-03-01T13:19:38;102538.43;;;7.15;38.98
34241;BME280;20503;50.200;19.508;2023-03-01T13:24:43;102542.03;;;7.35;34.26
34241;BME280;20503;50.200;19.508;2023-03-01T13:29:46;102533.69;;;7.27;34.17
34241;BME280;20503;50.200;19.508;2023-03-01T13:34:56;102542.03;;;7.35;33.18
34241;BME280;20503;50.200;19.508;2023-03-01T13:50:25;102526.67;;;6.96;35.32
34241;BME280;20503;50.200;19.508;2023-03-01T13:55:40;102509.74;;;7.39;38.56
34241;BME280;20503;50.200;19.508;2023-03-01T14:00:42;102508.45;;;7.43;35.81
34241;BME280;20503;50.200;19.508;2023-03-01T14:16:18;102527.22;;;6.61;37.26
34241;BME280;20503;50.200;19.508;2023-03-01T14:21:23;102503.15;;;6.66;37.55
34241;BME280;20503;50.200;19.508;2023-03-01T14:26:26;102499.44;;;6.67;37.63
34241;BME280;20503;50.200;19.508;2023-03-01T14:31:38;102481.69;;;6.73;39.70
34241;BME280;20503;50.200;19.508;2023-03-01T14:36:41;102485.92;;;6.47;38.36
34241;BME280;20503;50.200;19.508;2023-03-01T14:41:45;102487.52;;;6.49;37.72
34241;BME280;20503;50.200;19.508;2023-03-01T14:46:52;102489.82;;;6.44;36.17
34241;BME280;20503;50.200;19.508;2023-03-01T14:52:04;102493.68;;;6.51;34.31
34241;BME280;20503;50.200;19.508;2023-03-01T15:02:22;102496.31;;;6.13;30.84
34241;BME280;20503;50.200;19.508;2023-03-01T15:07:30;102504.90;;;6.18;31.54
34241;BME280;20503;50.200;19.508;2023-03-01T15:12:38;102492.59;;;6.14;33.00
34241;BME280;20503;50.200;19.508;2023-03-01T15:17:40;102488.24;;;6.02;33.90
34241;BME280;20503;50.200;19.508;2023-03-01T15:22:46;102501.21;;;5.89;32.12
34241;BME280;20503;50.200;19.508;2023-03-01T15:27:50;102486.45;;;5.82;36.35
34241;BME280;20503;50.200;19.508;2023-03-01T15:48:35;102466.77;;;5.19;45.84
34241;BME280;20503;50.200;19.508;2023-03-01T15:53:37;102469.14;;;4.92;47.15
34241;BME280;20503;50.200;19.508;2023-03-01T15:58:39;102468.97;;;4.73;46.87
34241;BME280;20503;50.200;19.508;2023-03-01T16:03:44;102470.90;;;4.51;47.35
34241;BME280;20503;50.200;19.508;2023-03-01T16:08:47;102485.01;;;4.34;48.35
34241;BME280;20503;50.200;19.508;2023-03-01T16:13:50;102492.77;;;4.16;49.29
34241;BME280;20503;50.200;19.508;2023-03-01T16:18:51;102485.30;;;3.87;50.95
34241;BME280;20503;50.200;19.508;2023-03-01T16:23:53;102496.86;;;3.56;52.51
34241;BME280;20503;50.200;19.508;2023-03-01T16:28:55;102492.42;;;3.33;52.93
34241;BME280;20503;50.200;19.508;2023-03-01T16:33:59;102499.27;;;3.15;54.21
34241;BME280;20503;50.200;19.508;2023-03-01T16:39:01;102495.08;;;2.88;55.81
34241;BME280;20503;50.200;19.508;2023-03-01T16:44:05;102501.38;;;2.88;56.87
34241;BME280;20503;50.200;19.508;2023-03-01T16:49:06;102501.55;;;2.74;58.97
34241;BME280;20503;50.200;19.508;2023-03-01T16:54:09;102497.38;;;2.70;60.28
34241;BME280;20503;50.200;19.508;2023-03-01T16:59:12;102507.44;;;2.68;59.58
34241;BME280;20503;50.200;19.508;2023-03-01T17:04:13;102504.00;;;2.66;59.56
34241;BME280;20503;50.200;19.508;2023-03-01T17:09:15;102501.63;;;2.62;59.84
34241;BME280;20503;50.200;19.508;2023-03-01T17:14:18;102508.58;;;2.53;60.89
34241;BME280;20503;50.200;19.508;2023-03-01T17:19:19;102502.67;;;2.48;61.77
34241;BME280;20503;50.200;19.508;2023-03-01T17:24:21;102504.09;;;2.41;62.15
34241;BME280;20503;50.200;19.508;2023-03-01T17:29:22;102510.38;;;2.42;62.47
34241;BME280;20503;50.200;19.508;2023-03-01T17:34:24;102509.50;;;2.41;62.37
34241;BME280;20503;50.200;19.508;2023-03-01T17:39:26;102508.42;;;2.44;62.86
34241;BME280;20503;50.200;19.508;2023-03-01T17:44:35;102506.04;;;2.39;63.27
34241;BME280;20503;50.200;19.508;2023-03-01T17:49:37;102501.55;;;2.27;63.92
34241;BME280;20503;50.200;19.508;2023-03-01T17:54:39;102505.08;;;2.04;64.84
34241;BME280;20503;50.200;19.508;2023-03-01T17:59:42;102506.66;;;1.83;66.21
34241;BME280;20503;50.200;19.508;2023-03-01T18:04:47;102499.56;;;1.33;69.41
34241;BME280;20503;50.200;19.508;2023-03-01T18:09:49;102493.66;;;1.88;66.79
34241;BME280;20503;50.200;19.508;2023-03-01T18:14:50;102500.70;;;1.91;66.56
34241;BME280;20503;50.200;19.508;2023-03-01T18:22:43;102490.02;;;0.90;72.37
34241;BME280;20503;50.200;19.508;2023-03-01T18:27:53;102499.29;;;0.33;75.87
34241;BME280;20503;50.200;19.508;2023-03-01T18:32:59;102504.99;;;0.28;77.99
34241;BME280;20503;50.200;19.508;2023-03-01T18:38:09;102495.64;;;1.12;72.43
34241;BME280;20503;50.200;19.508;2023-03-01T18:43:14;102495.13;;;0.68;75.17
34241;BME280;20503;50.200;19.508;2023-03-01T18:48:23;102510.52;;;-0.01;80.95
34241;BME280;20503;50.200;19.508;2023-03-01T18:53:30;102506.05;;;-0.28;83.97
34241;BME280;20503;50.200;19.508;2023-03-01T18:58:43;102486.27;;;-0.41;84.23
34241;BME280;20503;50.200;19.508;2023-03-01T19:03:54;102478.71;;;-0.63;85.24
34241;BME280;20503;50.200;19.508;2023-03-01T19:08:58;102476.00;;;-0.77;90.26
34241;BME280;20503;50.200;19.508;2023-03-01T19:14:03;102475.99;;;-0.91;95.81
34241;BME280;20503;50.200;19.508;2023-03-01T19:19:17;102457.27;;;-1.06;100.00
34241;BME280;20503;50.200;19.508;2023-03-01T19:24:19;102460.03;;;-1.08;100.00
34241;BME280;20503;50.200;19.508;2023-03-01T19:29:27;102461.38;;;-1.44;100.00
34241;BME280;20503;50.200;19.508;2023-03-01T19:34:36;102460.35;;;-1.42;100.00
34241;BME280;20503;50.200;19.508;2023-03-01T19:39:47;102458.24;;;-1.37;100.00
34241;BME280;20503;50.200;19.508;2023-03-01T19:44:57;102457.53;;;-1.54;100.00
34241;BME280;20503;50.200;19.508;2023-03-01T19:50:00;102458.30;;;-1.52;100.00
34241;BME280;20503;50.200;19.508;2023-03-01T19:55:07;102469.88;;;-1.52;100.00
34241;BME280;20503;50.200;19.508;2023-03-01T20:00:15;102486.42;;;-1.59;100.00
34241;BME280;20503;50.200;19.508;2023-03-01T20:05:23;102490.52;;;-1.68;100.00
34241;BME280;20503;50.200;19.508;2023-03-01T20:10:36;102494.01;;;-1.81;100.00
34241;BME280;20503;50.200;19.508;2023-03-01T20:15:43;102492.53;;;-1.87;100.00
34241;BME280;20503;50.200;19.508;2023-03-01T20:20:48;102488.13;;;-1.87;100.00
34241;BME280;20503;50.200;19.508;2023-03-01T20:26:08;102486.66;;;-1.93;100.00
34241;BME280;20503;50.200;19.508;2023-03-01T20:31:19;102483.12;;;-1.93;100.00
34241;BME280;20503;50.200;19.508;2023-03-01T20:36:26;102474.63;;;-2.01;100.00
34241;BME280;20503;50.200;19.508;2023-03-01T20:41:28;102463.49;;;-2.09;100.00
34241;BME280;20503;50.200;19.508;2023-03-01T20:46:32;102469.80;;;-2.10;100.00
34241;BME280;20503;50.200;19.508;2023-03-01T20:51:36;102480.01;;;-2.17;100.00
34241;BME280;20503;50.200;19.508;2023-03-01T20:56:51;102472.46;;;-2.26;100.00
34241;BME280;20503;50.200;19.508;2023-03-01T21:01:55;102459.77;;;-2.22;100.00
34241;BME280;20503;50.200;19.508;2023-03-01T21:07:05;102453.16;;;-2.32;100.00
34241;BME280;20503;50.200;19.508;2023-03-01T21:12:10;102457.34;;;-2.27;100.00
34241;BME280;20503;50.200;19.508;2023-03-01T21:17:17;102479.45;;;-2.39;100.00
34241;BME280;20503;50.200;19.508;2023-03-01T21:22:27;102469.96;;;-2.44;100.00
34241;BME280;20503;50.200;19.508;2023-03-01T21:27:35;102478.78;;;-2.42;100.00
34241;BME280;20503;50.200;19.508;2023-03-01T21:32:43;102467.88;;;-2.55;100.00
34241;BME280;20503;50.200;19.508;2023-03-01T21:37:50;102468.02;;;-2.58;100.00
34241;BME280;20503;50.200;19.508;2023-03-01T21:42:57;102468.90;;;-2.57;100.00
34241;BME280;20503;50.200;19.508;2023-03-01T21:48:05;102480.62;;;-2.75;100.00
34241;BME280;20503;50.200;19.508;2023-03-01T21:53:15;102476.63;;;-2.84;100.00
34241;BME280;20503;50.200;19.508;2023-03-01T21:58:20;102471.16;;;-2.82;100.00
34241;BME280;20503;50.200;19.508;2023-03-01T22:03:28;102460.45;;;-2.82;100.00
34241;BME280;20503;50.200;19.508;2023-03-01T22:08:36;102456.38;;;-2.89;100.00
34241;BME280;20503;50.200;19.508;2023-03-01T22:13:46;102465.20;;;-2.87;100.00
34241;BME280;20503;50.200;19.508;2023-03-01T22:18:52;102463.39;;;-2.87;100.00
34241;BME280;20503;50.200;19.508;2023-03-01T22:24:00;102463.63;;;-2.91;100.00
34241;BME280;20503;50.200;19.508;2023-03-01T22:29:10;102449.87;;;-3.01;100.00
34241;BME280;20503;50.200;19.508;2023-03-01T22:34:17;102443.19;;;-3.09;100.00
34241;BME280;20503;50.200;19.508;2023-03-01T22:39:23;102441.60;;;-3.13;100.00
34241;BME280;20503;50.200;19.508;2023-03-01T22:44:31;102443.82;;;-3.21;100.00
34241;BME280;20503;50.200;19.508;2023-03-01T22:49:40;102446.84;;;-3.27;100.00
34241;BME280;20503;50.200;19.508;2023-03-01T22:54:47;102441.63;;;-3.47;100.00
34241;BME280;20503;50.200;19.508;2023-03-01T22:59:56;102428.81;;;-3.41;100.00
34241;BME280;20503;50.200;19.508;2023-03-01T23:05:04;102440.45;;;-3.42;100.00
34241;BME280;20503;50.200;19.508;2023-03-01T23:10:12;102452.49;;;-3.50;100.00
34241;BME280;20503;50.200;19.508;2023-03-01T23:15:18;102455.01;;;-3.47;100.00
34241;BME280;20503;50.200;19.508;2023-03-01T23:20:27;102446.19;;;-3.49;100.00
34241;BME280;20503;50.200;19.508;2023-03-01T23:25:34;102436.55;;;-3.52;100.00
34241;BME280;20503;50.200;19.508;2023-03-01T23:35:56;102441.80;;;-3.50;100.00
34241;BME280;20503;50.200;19.508;2023-03-01T23:40:59;102445.12;;;-3.62;100.00
34241;BME280;20503;50.200;19.508;2023-03-01T23:46:06;102447.38;;;-3.55;100.00
34241;BME280;20503;50.200;19.508;2023-03-01T23:51:15;102443.23;;;-3.43;100.00
34241;BME280;20503;50.200;19.508;2023-03-01T23:56:28;102446.52;;;-3.38;100.00
